Time;durP1;ratioP1;P1;durP2;ratioP2;P2;SDS_P1;SDS_P2;PMS_P1;PMS_P2;Temp;Humidity;BMP_temperature;BMP_pressure;BME280_temperature;BME280_humidity;BME280_pressure;Samples;Min_cycle;Max_cycle;Signal;HPM_P1;HPM_P2
2021/09/22 00:00:00;;;;;;;6.43;5.93;;;;;;;31.85;17.94;95031.72;5034925;28;20060;-44
2021/09/22 00:02:27;;;;;;;7.32;6.32;;;;;;;32.12;17.79;95033.66;5034462;28;20052;-43
2021/09/22 00:04:54;;;;;;;6.63;6.07;;;;;;;32.14;17.96;95036.72;5034958;28;20048;-45
2021/09/22 00:07:21;;;;;;;7.03;6.32;;;;;;;32.01;17.63;95035.72;5031126;28;20058;-43
2021/09/22 00:09:49;;;;;;;7.00;6.40;;;;;;;31.88;17.98;95039.00;5015048;28;20053;-44
2021/09/22 00:12:16;;;;;;;7.20;6.50;;;;;;;32.14;17.75;95037.47;5030646;28;20053;-44
2021/09/22 00:14:43;;;;;;;6.82;6.22;;;;;;;32.12;17.70;95025.53;5034658;28;20053;-43
2021/09/22 00:17:10;;;;;;;6.40;5.80;;;;;;;32.00;18.16;95026.09;5034281;28;20041;-43
2021/09/22 00:19:37;;;;;;;7.10;6.50;;;;;;;31.55;18.32;95018.19;5034718;28;20041;-44
2021/09/22 00:22:05;;;;;;;7.20;6.50;;;;;;;30.00;19.94;95028.00;5022971;28;20050;-43
2021/09/22 00:24:32;;;;;;;7.35;6.32;;;;;;;30.87;19.10;95028.94;5015102;28;20046;-43
2021/09/22 00:26:59;;;;;;;7.00;6.40;;;;;;;31.47;18.58;95032.94;5014784;28;20070;-43
2021/09/22 00:29:26;;;;;;;6.88;6.22;;;;;;;31.59;18.10;95025.06;5018271;28;20049;-43
2021/09/22 00:32:08;;;;;;;7.30;6.70;;;;;;;31.94;17.76;95016.91;5022890;28;20045;-44
2021/09/22 00:34:35;;;;;;;7.18;6.57;;;;;;;32.06;17.79;95009.03;5014894;28;20338;-49
2021/09/22 00:37:06;;;;;;;9.68;6.43;;;;;;;32.05;17.90;95002.09;5026839;28;20045;-43
2021/09/22 00:39:36;;;;;;;7.47;6.65;;;;;;;31.26;18.69;95015.81;5033470;28;20360;-45
2021/09/22 00:42:07;;;;;;;7.20;6.50;;;;;;;30.34;19.91;95014.69;5021249;28;20057;-43
2021/09/22 00:44:55;;;;;;;8.77;7.20;;;;;;;31.13;18.78;95022.09;5030125;28;20376;-44
2021/09/22 00:47:24;;;;;;;7.20;6.50;;;;;;;31.57;18.42;95010.44;5012994;28;20053;-43
2021/09/22 00:49:52;;;;;;;7.88;7.13;;;;;;;31.77;17.90;95013.31;5013258;28;20053;-45
2021/09/22 00:52:21;;;;;;;6.88;6.28;;;;;;;31.77;17.92;94997.09;5045349;28;20387;-44
2021/09/22 00:54:48;;;;;;;7.95;6.82;;;;;;;31.96;18.12;94998.34;5033427;28;20045;-45
2021/09/22 00:57:21;;;;;;;6.55;5.95;;;;;;;31.73;18.37;94997.09;5034329;28;20364;-45
2021/09/22 00:59:48;;;;;;;7.30;6.63;;;;;;;31.94;17.84;95000.69;5033066;28;20042;-44
2021/09/22 01:02:16;;;;;;;7.13;6.30;;;;;;;31.75;18.04;94994.78;5032247;28;20064;-44
2021/09/22 01:04:43;;;;;;;7.43;6.72;;;;;;;31.56;17.96;94996.16;5034286;28;20053;-45
2021/09/22 01:07:13;;;;;;;8.35;6.82;;;;;;;29.02;21.15;95003.78;5032429;28;20049;-44
2021/09/22 01:09:42;;;;;;;7.38;6.70;;;;;;;30.62;19.11;95000.25;5017736;28;20060;-44
2021/09/22 01:12:10;;;;;;;7.38;6.78;;;;;;;31.12;18.88;94988.94;5033924;28;20381;-44
2021/09/22 01:14:37;;;;;;;7.80;6.93;;;;;;;31.41;18.39;94980.53;5031292;28;20466;-44
2021/09/22 01:17:04;;;;;;;7.55;6.40;;;;;;;31.56;18.39;94976.47;5038151;28;20049;-46
2021/09/22 01:19:31;;;;;;;7.57;6.85;;;;;;;31.51;18.31;94979.66;5020649;28;20057;-45
2021/09/22 01:21:59;;;;;;;6.93;6.22;;;;;;;31.86;17.62;94973.78;5036219;28;20052;-44
2021/09/22 01:24:37;;;;;;;7.60;6.40;;;;;;;31.99;17.81;94981.31;5036554;28;20045;-44
2021/09/22 01:27:05;;;;;;;7.13;6.40;;;;;;;32.00;17.76;94972.00;5037764;28;20049;-44
2021/09/22 01:29:34;;;;;;;7.45;6.75;;;;;;;31.93;17.45;94974.84;5036532;28;20056;-44
2021/09/22 01:32:01;;;;;;;6.75;6.15;;;;;;;32.03;17.81;94974.69;5036585;28;20383;-46
2021/09/22 01:34:29;;;;;;;7.30;6.40;;;;;;;31.80;17.89;94972.72;5036544;28;20502;-45
2021/09/22 01:37:10;;;;;;;6.68;6.07;;;;;;;31.83;17.33;94963.00;5035428;28;20049;-45
2021/09/22 01:39:57;;;;;;;6.53;5.85;;;;;;;31.81;17.76;94960.72;5032393;28;20046;-45
2021/09/22 01:42:24;;;;;;;6.72;6.10;;;;;;;31.89;17.57;94962.13;5017772;28;20054;-45
2021/09/22 01:44:54;;;;;;;6.80;6.10;;;;;;;31.62;17.62;94960.56;5021433;28;20042;-45
2021/09/22 01:47:29;;;;;;;6.53;5.93;;;;;;;31.85;17.24;94961.44;5035844;28;20081;-46
2021/09/22 01:50:14;;;;;;;6.90;6.22;;;;;;;31.73;17.59;94958.50;5035935;28;20052;-45
2021/09/22 01:52:45;;;;;;;6.50;5.90;;;;;;;31.94;17.38;94962.84;5037245;28;20451;-46
2021/09/22 01:55:21;;;;;;;6.20;5.60;;;;;;;31.72;17.53;94957.75;5035930;28;20045;-46
2021/09/22 01:57:51;;;;;;;6.50;5.90;;;;;;;31.82;17.39;94962.25;5036241;28;20367;-44
2021/09/22 02:00:37;;;;;;;6.30;5.80;;;;;;;31.82;17.28;94962.25;5021342;28;20041;-44
2021/09/22 02:03:05;;;;;;;5.55;5.05;;;;;;;31.76;16.96;94957.72;5024911;28;20046;-44
2021/09/22 02:05:38;;;;;;;9.20;5.15;;;;;;;31.50;17.46;94956.50;5026290;28;20049;-44
2021/09/22 02:08:20;;;;;;;5.60;5.10;;;;;;;31.75;17.01;94962.34;5035651;28;20058;-44
2021/09/22 02:10:50;;;;;;;5.60;5.10;;;;;;;31.69;16.69;94958.53;5024546;28;20069;-45
2021/09/22 02:13:19;;;;;;;6.38;5.20;;;;;;;31.56;16.92;94952.16;5016232;28;20048;-45
2021/09/22 02:15:46;;;;;;;6.65;5.25;;;;;;;31.71;16.33;94956.22;5026910;28;20049;-44
2021/09/22 02:18:32;;;;;;;6.43;5.18;;;;;;;31.72;16.86;94946.94;5036825;28;20048;-48
2021/09/22 02:21:00;;;;;;;5.60;5.10;;;;;;;31.94;16.34;94947.38;5035471;28;20053;-45
2021/09/22 02:23:29;;;;;;;5.93;5.43;;;;;;;31.83;16.38;94947.56;5035601;28;20045;-45
2021/09/22 02:26:01;;;;;;;5.68;5.25;;;;;;;31.57;16.92;94956.41;5022577;28;20052;-45
2021/09/22 02:28:30;;;;;;;5.28;4.78;;;;;;;31.77;16.53;94956.53;5016031;28;20054;-45
2021/09/22 02:30:57;;;;;;;5.20;4.75;;;;;;;31.58;16.65;94949.81;5016290;28;20369;-44
2021/09/22 02:33:26;;;;;;;5.70;5.20;;;;;;;31.62;16.43;94947.84;5024179;28;20053;-45
2021/09/22 02:35:55;;;;;;;6.03;5.53;;;;;;;31.69;15.82;94952.38;5035314;28;20061;-44
2021/09/22 02:38:25;;;;;;;5.47;4.97;;;;;;;31.64;15.89;94967.09;5026771;28;20042;-47
2021/09/22 02:40:52;;;;;;;5.68;5.10;;;;;;;31.74;16.06;94966.22;5033394;28;20056;-44
2021/09/22 02:43:24;;;;;;;7.03;5.10;;;;;;;31.93;15.52;94956.69;5035126;28;20041;-44
2021/09/22 02:45:53;;;;;;;5.72;5.15;;;;;;;31.59;15.72;94964.84;5035447;28;20056;-44
2021/09/22 02:48:26;;;;;;;5.28;4.88;;;;;;;31.87;15.75;94958.31;5034873;28;20045;-45
2021/09/22 02:50:53;;;;;;;4.97;4.57;;;;;;;31.37;15.74;94952.81;5016777;28;20503;-46
2021/09/22 02:53:20;;;;;;;5.05;4.60;;;;;;;31.42;15.76;94952.34;5015447;28;20053;-47
2021/09/22 02:55:47;;;;;;;5.18;4.78;;;;;;;31.48;15.60;94945.31;5022863;28;20053;-46
2021/09/22 02:58:14;;;;;;;5.43;5.03;;;;;;;31.29;15.90;94941.34;5038488;28;20051;-45
2021/09/22 03:00:47;;;;;;;5.25;4.85;;;;;;;31.48;15.65;94948.00;5036923;28;20052;-45
2021/09/22 03:03:16;;;;;;;5.05;4.57;;;;;;;31.56;15.92;94946.75;5038251;28;20487;-45
2021/09/22 03:05:43;;;;;;;4.95;4.45;;;;;;;31.48;15.74;94943.38;5039671;28;20474;-53
2021/09/22 03:08:10;;;;;;;5.35;4.63;;;;;;;31.52;15.99;94943.34;5074970;28;20544;-47
2021/09/22 03:10:37;;;;;;;5.00;4.60;;;;;;;31.65;15.85;94943.53;5073058;28;20041;-45
2021/09/22 03:13:04;;;;;;;5.53;5.03;;;;;;;31.67;15.47;94943.91;5065298;28;20390;-45
2021/09/22 03:15:32;;;;;;;4.88;4.40;;;;;;;31.47;16.07;94943.78;5037995;28;20087;-45
2021/09/22 03:17:59;;;;;;;4.90;4.50;;;;;;;31.76;15.81;94946.91;5038075;28;20056;-44
2021/09/22 03:20:26;;;;;;;4.82;4.40;;;;;;;31.57;15.70;94940.19;5050961;28;20390;-45
2021/09/22 03:22:53;;;;;;;6.95;4.82;;;;;;;31.81;15.60;94939.09;5057986;28;20040;-45
2021/09/22 03:25:26;;;;;;;5.03;4.63;;;;;;;31.62;15.91;94934.31;5075194;28;20044;-46
2021/09/22 03:27:53;;;;;;;5.40;5.00;;;;;;;31.75;15.62;94945.34;5075257;28;20051;-45
2021/09/22 03:30:21;;;;;;;5.32;4.45;;;;;;;31.69;15.56;94928.81;5073084;28;20055;-44
2021/09/22 03:32:56;;;;;;;5.10;4.70;;;;;;;31.74;15.86;94933.78;5056810;28;20040;-45
2021/09/22 03:35:23;;;;;;;8.18;4.72;;;;;;;31.27;16.24;94933.63;5074767;28;20044;-44
2021/09/22 03:37:50;;;;;;;5.32;4.82;;;;;;;31.70;15.49;94943.84;5037924;28;20063;-45
2021/09/22 03:40:17;;;;;;;5.13;4.57;;;;;;;31.56;15.71;94938.66;5036787;28;20041;-45
2021/09/22 03:42:45;;;;;;;5.20;4.70;;;;;;;31.77;15.62;94934.94;5037523;28;20060;-45
2021/09/22 03:45:16;;;;;;;5.10;4.70;;;;;;;31.82;15.78;94923.66;5037490;28;20045;-45
2021/09/22 03:47:43;;;;;;;5.22;4.72;;;;;;;31.63;15.97;94924.28;5037447;28;20440;-46
2021/09/22 03:50:11;;;;;;;5.53;5.03;;;;;;;31.52;16.12;94927.13;5047001;28;20048;-44
2021/09/22 03:52:57;;;;;;;7.35;5.00;;;;;;;31.57;15.65;94930.16;5075117;28;20055;-46
2021/09/22 03:55:24;;;;;;;5.32;4.80;;;;;;;31.62;15.85;94926.22;5057141;28;20040;-45
2021/09/22 03:57:52;;;;;;;5.30;4.80;;;;;;;31.51;16.10;94925.63;5056856;28;20051;-45
2021/09/22 04:00:21;;;;;;;4.60;4.20;;;;;;;31.38;16.09;94916.50;5056499;28;20049;-44
2021/09/22 04:02:48;;;;;;;4.90;4.40;;;;;;;31.25;16.30;94908.97;5057215;28;20064;-45
2021/09/22 04:05:16;;;;;;;5.10;4.60;;;;;;;31.41;15.88;94911.06;5074707;28;20049;-45
2021/09/22 04:07:45;;;;;;;4.55;4.15;;;;;;;31.43;16.12;94905.25;5038172;28;20049;-46
2021/09/22 04:10:12;;;;;;;4.80;4.35;;;;;;;31.65;15.54;94919.22;5079985;28;20166;-44
2021/09/22 04:12:41;;;;;;;4.45;4.05;;;;;;;31.54;15.75;94919.38;5057314;28;20055;-44
2021/09/22 04:15:08;;;;;;;4.90;4.40;;;;;;;31.51;15.83;94918.28;5057011;28;20324;-47
2021/09/22 04:17:36;;;;;;;5.38;4.65;;;;;;;29.83;17.94;94904.94;5034151;28;20053;-47
2021/09/22 04:20:05;;;;;;;5.32;4.82;;;;;;;30.66;17.16;94903.84;5057377;28;20061;-42
2021/09/22 04:22:36;;;;;;;8.13;5.30;;;;;;;31.77;16.42;94919.47;5046587;28;20061;-45
2021/09/22 04:25:04;;;;;;;5.43;4.78;;;;;;;31.70;16.77;94883.63;5034294;28;20049;-44
2021/09/22 04:27:34;;;;;;;5.68;4.60;;;;;;;33.22;15.50;94903.78;5022974;28;20056;-44
2021/09/22 04:30:13;;;;;;;4.70;4.10;;;;;;;33.73;14.95;94892.22;5053355;28;20052;-44
2021/09/22 04:32:59;;;;;;;5.53;4.22;;;;;;;34.48;14.48;94874.16;5037449;28;20056;-43
2021/09/22 04:35:45;;;;;;;6.38;4.40;;;;;;;35.31;14.50;94889.72;5056064;28;20049;-61
2021/09/22 04:38:30;;;;;;;4.70;4.25;;;;;;;34.67;14.29;94872.50;5036506;28;20045;-62
2021/09/22 04:41:36;;;;;;;4.38;3.97;;;;;;;33.63;14.68;94873.50;5011790;28;20096;-56
2021/09/22 04:44:21;;;;;;;4.88;4.07;;;;;;;33.06;14.89;94877.44;5009731;28;20197;-52
2021/09/22 04:47:07;;;;;;;7.45;4.10;;;;;;;32.63;15.01;94869.38;5024938;28;20408;-49
2021/09/22 04:49:54;;;;;;;5.00;3.90;;;;;;;31.99;15.81;94873.16;5050115;28;20071;-56
2021/09/22 04:52:40;;;;;;;5.18;4.68;;;;;;;32.32;16.46;94877.66;5074861;28;20060;-50
2021/09/22 04:55:26;;;;;;;4.40;4.00;;;;;;;32.59;16.00;94868.66;5038136;28;20075;-49
2021/09/22 04:58:11;;;;;;;4.25;3.85;;;;;;;32.64;16.34;94868.19;5038344;28;20049;-52
2021/09/22 05:01:01;;;;;;;4.93;4.50;;;;;;;32.36;16.19;94875.66;5059975;28;20498;-51
2021/09/22 05:03:47;;;;;;;4.88;4.07;;;;;;;32.55;15.97;94870.69;5050151;28;20053;-56
2021/09/22 05:06:34;;;;;;;5.07;3.97;;;;;;;32.24;15.95;94872.75;5050662;28;20052;-49
2021/09/22 05:09:20;;;;;;;4.90;4.20;;;;;;;32.04;15.95;94875.41;5069500;28;20049;-48
2021/09/22 05:12:05;;;;;;;4.05;3.65;;;;;;;32.21;15.67;94875.09;5077671;28;20048;-49
2021/09/22 05:14:51;;;;;;;4.85;4.38;;;;;;;32.02;15.27;94872.38;5077444;28;20040;-49
2021/09/22 05:17:36;;;;;;;4.40;4.00;;;;;;;31.93;15.52;94869.41;5076690;28;20048;-58
2021/09/22 05:20:22;;;;;;;5.50;4.07;;;;;;;31.95;14.97;94877.88;5066655;28;20052;-50
2021/09/22 05:23:08;;;;;;;4.55;3.70;;;;;;;32.20;15.10;94870.09;5078071;28;20048;-51
2021/09/22 05:25:54;;;;;;;4.15;3.75;;;;;;;32.02;14.80;94872.38;5076349;28;20052;-50
2021/09/22 05:28:39;;;;;;;4.32;3.90;;;;;;;32.08;15.08;94870.72;5077566;28;20059;-50
2021/09/22 05:31:25;;;;;;;4.63;4.15;;;;;;;31.96;15.00;94879.38;5073942;28;20048;-51
2021/09/22 05:34:11;;;;;;;4.78;3.75;;;;;;;32.08;14.85;94876.13;5067823;28;20049;-49
2021/09/22 05:36:57;;;;;;;4.63;4.25;;;;;;;31.98;14.82;94872.41;5047528;28;20045;-52
2021/09/22 05:39:50;;;;;;;4.72;4.10;;;;;;;32.19;14.55;94876.69;5053092;28;20056;-59
2021/09/22 05:42:36;;;;;;;6.60;4.70;;;;;;;31.37;15.04;94877.19;5077086;28;20071;-53
2021/09/22 05:45:22;;;;;;;4.30;3.90;;;;;;;31.01;15.69;94872.22;5067005;28;20052;-50
2021/09/22 05:48:08;;;;;;;4.43;4.03;;;;;;;32.63;15.28;94878.25;5060712;28;20048;-48
2021/09/22 05:50:53;;;;;;;9.77;4.35;;;;;;;31.73;15.20;94872.78;5061170;28;20051;-49
2021/09/22 05:53:40;;;;;;;6.32;4.18;;;;;;;32.13;15.37;94870.22;5077576;28;20363;-49
2021/09/22 05:56:26;;;;;;;8.38;3.88;;;;;;;32.26;15.60;94867.72;5077262;28;20451;-48
2021/09/22 05:59:11;;;;;;;4.55;3.90;;;;;;;32.50;15.10;94878.09;5059998;28;20471;-51
2021/09/22 06:01:57;;;;;;;4.38;3.97;;;;;;;32.05;14.75;94879.66;5062855;28;20052;-50
2021/09/22 06:04:43;;;;;;;4.00;3.50;;;;;;;32.09;14.61;94880.34;5074204;28;20057;-47
2021/09/22 06:07:45;;;;;;;4.15;3.72;;;;;;;32.01;14.93;94887.03;5027007;28;20440;-49
2021/09/22 06:10:31;;;;;;;4.93;3.80;;;;;;;31.90;14.55;94869.06;5059101;28;20044;-50
2021/09/22 06:13:15;;;;;;;4.00;3.70;;;;;;;31.83;14.47;94866.47;5059224;28;20048;-47
2021/09/22 06:15:42;;;;;;;4.38;3.97;;;;;;;31.28;14.90;94864.94;5075072;28;20051;-50
2021/09/22 06:18:11;;;;;;;4.35;3.92;;;;;;;32.13;14.91;94857.47;5059194;28;20362;-48
2021/09/22 06:20:38;;;;;;;5.43;4.38;;;;;;;32.22;15.17;94856.94;5076330;28;20045;-47
2021/09/22 06:23:05;;;;;;;5.15;4.47;;;;;;;31.99;15.60;94863.09;5076761;28;20477;-54
2021/09/22 06:25:33;;;;;;;5.32;4.70;;;;;;;31.94;15.80;94865.53;5058621;28;20052;-51
2021/09/22 06:28:00;;;;;;;6.53;5.25;;;;;;;31.69;15.69;94865.88;5076888;28;20362;-49
2021/09/22 06:30:27;;;;;;;6.22;5.63;;;;;;;31.70;15.54;94851.97;5076258;28;20040;-49
2021/09/22 06:32:55;;;;;;;7.55;6.70;;;;;;;32.06;15.00;94854.13;5058446;28;20048;-47
2021/09/22 06:35:23;;;;;;;7.38;6.63;;;;;;;31.80;15.48;94861.13;5076006;28;20044;-47
2021/09/22 06:37:55;;;;;;;5.65;5.10;;;;;;;30.89;16.15;94859.25;5038045;28;20360;-49
2021/09/22 06:40:27;;;;;;;6.03;5.13;;;;;;;30.80;16.31;94861.69;5081642;28;20470;-49
2021/09/22 06:43:02;;;;;;;7.05;5.22;;;;;;;30.97;16.21;94866.13;5042722;28;20049;-52
2021/09/22 06:45:29;;;;;;;6.28;5.60;;;;;;;31.67;15.33;94865.53;5041694;28;20519;-48
2021/09/22 06:47:56;;;;;;;5.30;4.70;;;;;;;31.71;15.87;94864.34;5046555;28;20053;-53
2021/09/22 06:50:24;;;;;;;5.32;4.43;;;;;;;31.67;15.81;94858.19;5056587;28;20040;-52
2021/09/22 06:52:51;;;;;;;5.32;4.18;;;;;;;31.60;16.03;94863.72;5076127;28;20048;-57
2021/09/22 06:55:19;;;;;;;5.85;4.68;;;;;;;31.51;16.07;94860.78;5058327;28;20048;-52
2021/09/22 06:57:46;;;;;;;6.28;4.93;;;;;;;32.02;15.61;94866.97;5074989;28;20049;-50
2021/09/22 07:00:14;;;;;;;6.13;4.93;;;;;;;31.80;15.27;94871.94;5068131;28;20053;-49
2021/09/22 07:02:41;;;;;;;6.63;4.55;;;;;;;32.13;14.86;94873.69;5035063;28;20041;-51
2021/09/22 07:05:10;;;;;;;6.18;4.25;;;;;;;32.42;15.07;94873.97;5035890;28;20049;-51
2021/09/22 07:07:39;;;;;;;6.18;4.60;;;;;;;32.60;14.91;94878.31;5052239;28;20045;-52
2021/09/22 07:10:07;;;;;;;5.15;4.65;;;;;;;32.35;14.44;94882.25;5062448;28;20041;-48
2021/09/22 07:12:34;;;;;;;4.72;4.32;;;;;;;32.21;14.83;94874.34;5074761;28;20047;-47
2021/09/22 07:15:01;;;;;;;4.90;4.40;;;;;;;32.17;14.46;94879.81;5058007;28;20036;-48
2021/09/22 07:17:29;;;;;;;5.13;4.07;;;;;;;32.62;14.52;94876.72;5075318;28;20044;-53
2021/09/22 07:19:56;;;;;;;5.18;4.50;;;;;;;32.76;14.48;94881.06;5071597;28;20351;-48
2021/09/22 07:22:23;;;;;;;4.97;4.47;;;;;;;32.39;15.02;94882.94;5075533;28;20051;-48
2021/09/22 07:24:51;;;;;;;4.40;4.00;;;;;;;32.40;14.61;94876.34;5074815;28;20463;-55
2021/09/22 07:27:18;;;;;;;5.25;4.25;;;;;;;32.05;14.59;94874.25;5074700;28;20052;-50
2021/09/22 07:29:45;;;;;;;4.85;4.35;;;;;;;32.08;14.31;94886.94;5074247;28;20055;-50
2021/09/22 07:32:14;;;;;;;4.43;4.03;;;;;;;32.03;14.72;94876.59;5034560;28;20052;-48
2021/09/22 07:34:41;;;;;;;4.43;3.58;;;;;;;32.05;14.22;94876.94;5035237;28;20056;-48
2021/09/22 07:37:12;;;;;;;4.20;3.80;;;;;;;31.79;14.74;94873.88;5048268;28;20444;-48
2021/09/22 07:39:40;;;;;;;7.05;4.30;;;;;;;31.90;14.30;94871.75;5040953;28;20047;-48
2021/09/22 07:42:12;;;;;;;4.72;4.32;;;;;;;32.04;14.24;94865.38;5057462;28;20052;-50
2021/09/22 07:44:41;;;;;;;11.82;4.20;;;;;;;31.68;14.40;94865.13;5075232;28;20725;-51
2021/09/22 07:47:08;;;;;;;5.18;4.28;;;;;;;31.84;14.69;94868.00;5075183;28;20044;-48
2021/09/22 07:49:35;;;;;;;5.18;4.10;;;;;;;31.65;14.62;94871.34;5074214;28;20060;-48
2021/09/22 07:52:02;;;;;;;6.88;3.88;;;;;;;31.60;14.55;94871.81;5074461;28;20063;-47
2021/09/22 07:54:29;;;;;;;5.93;4.00;;;;;;;31.44;14.90;94872.44;5056780;28;20041;-48
2021/09/22 07:56:57;;;;;;;4.53;4.13;;;;;;;31.77;14.33;94868.13;5074989;28;20056;-48
2021/09/22 07:59:24;;;;;;;4.32;3.92;;;;;;;31.50;14.47;94868.13;5074206;28;20047;-48
2021/09/22 08:01:51;;;;;;;6.43;4.10;;;;;;;31.51;14.19;94866.19;5074922;28;20366;-47
2021/09/22 08:04:18;;;;;;;4.55;4.00;;;;;;;31.44;14.84;94871.66;5074479;28;20044;-49
2021/09/22 08:06:45;;;;;;;4.35;3.95;;;;;;;31.81;14.48;94868.06;5064422;28;20111;-56
2021/09/22 08:09:12;;;;;;;4.78;4.03;;;;;;;31.72;14.01;94860.44;5069120;28;20079;-49
2021/09/22 08:11:40;;;;;;;4.68;4.20;;;;;;;31.44;14.14;94852.75;5039880;28;20051;-49
2021/09/22 08:14:07;;;;;;;4.82;4.38;;;;;;;31.61;14.28;94857.13;5074751;28;20048;-48
2021/09/22 08:16:34;;;;;;;5.28;4.45;;;;;;;31.55;14.34;94856.06;5074783;28;20052;-47
2021/09/22 08:19:01;;;;;;;5.10;4.60;;;;;;;31.89;13.92;94848.59;5074130;28;20044;-47
2021/09/22 08:21:28;;;;;;;5.53;4.57;;;;;;;31.56;14.08;94846.81;5073516;28;20363;-47
2021/09/22 08:23:55;;;;;;;5.10;4.60;;;;;;;31.78;13.62;94844.56;5073852;28;20454;-48
2021/09/22 08:26:22;;;;;;;4.85;4.35;;;;;;;31.67;13.66;94852.78;5073646;28;20060;-47
2021/09/22 08:28:49;;;;;;;4.93;4.53;;;;;;;31.85;13.88;94842.50;5074260;28;20055;-47
2021/09/22 08:31:16;;;;;;;5.47;4.90;;;;;;;31.77;13.76;94841.09;5072974;28;20044;-47
2021/09/22 08:33:43;;;;;;;5.38;4.88;;;;;;;32.05;13.77;94844.50;5073714;28;20052;-47
2021/09/22 08:36:11;;;;;;;5.35;4.85;;;;;;;31.85;13.75;94847.91;5068871;28;20041;-47
2021/09/22 08:38:38;;;;;;;5.75;4.95;;;;;;;31.59;13.87;94835.94;5052767;28;20056;-49
2021/09/22 08:41:05;;;;;;;5.10;4.60;;;;;;;31.90;14.06;94839.31;5054034;28;20041;-48
2021/09/22 08:43:32;;;;;;;5.28;4.75;;;;;;;31.75;13.98;94832.63;5060215;28;20518;-48
2021/09/22 08:46:00;;;;;;;5.47;4.30;;;;;;;31.73;14.05;94834.97;5040255;28;20048;-49
2021/09/22 08:48:27;;;;;;;5.00;4.40;;;;;;;31.87;13.89;94834.75;5073193;28;20049;-49
2021/09/22 08:50:55;;;;;;;6.68;4.45;;;;;;;31.68;14.22;94838.09;5073752;28;20482;-61
2021/09/22 08:53:23;;;;;;;4.75;4.35;;;;;;;31.82;14.07;94827.09;5073491;28;20044;-53
2021/09/22 08:55:51;;;;;;;5.00;4.57;;;;;;;31.84;13.76;94824.75;5074308;28;20375;-51
2021/09/22 08:58:19;;;;;;;5.47;4.57;;;;;;;32.17;13.66;94824.97;5074348;28;20056;-53
2021/09/22 09:00:47;;;;;;;6.82;4.72;;;;;;;31.73;14.39;94823.38;5072953;28;20040;-49
2021/09/22 09:03:34;;;;;;;4.93;4.45;;;;;;;31.98;14.35;94828.38;5056243;28;20052;-49
2021/09/22 09:06:20;;;;;;;4.50;4.10;;;;;;;32.09;14.00;94820.88;5060995;28;20052;-48
2021/09/22 09:08:50;;;;;;;5.13;4.55;;;;;;;32.07;13.54;94821.28;5057373;28;20059;-47
2021/09/22 09:11:27;;;;;;;5.03;4.40;;;;;;;32.15;13.85;94821.91;5073244;28;20052;-47
2021/09/22 09:13:56;;;;;;;4.50;4.10;;;;;;;31.96;14.26;94830.72;5073941;28;20067;-48
2021/09/22 09:16:30;;;;;;;5.47;4.75;;;;;;;32.22;13.66;94824.47;5074188;28;20057;-47
2021/09/22 09:18:57;;;;;;;5.57;4.97;;;;;;;32.11;13.72;94815.81;5073174;28;20036;-46
2021/09/22 09:21:25;;;;;;;13.15;11.85;;;;;;;31.94;14.02;94811.47;5055712;28;20048;-50
2021/09/22 09:23:56;;;;;;;12.68;11.40;;;;;;;32.15;13.91;94806.44;5073861;28;20044;-48
2021/09/22 09:26:27;;;;;;;9.52;8.63;;;;;;;31.92;13.73;94811.88;5072652;28;20479;-51
2021/09/22 09:28:58;;;;;;;6.72;6.03;;;;;;;31.87;13.88;94802.31;5073705;28;20059;-47
2021/09/22 09:31:33;;;;;;;6.20;5.60;;;;;;;32.11;14.16;94810.41;5074033;28;20040;-51
2021/09/22 09:34:04;;;;;;;4.97;4.53;;;;;;;32.03;13.88;94804.34;5074868;28;20051;-47
2021/09/22 09:36:48;;;;;;;5.65;4.72;;;;;;;32.05;13.72;94806.66;5069167;28;20048;-47
2021/09/22 09:39:23;;;;;;;4.85;4.05;;;;;;;31.94;14.04;94809.53;5059620;28;20047;-47
2021/09/22 09:41:53;;;;;;;6.28;4.20;;;;;;;32.09;14.12;94802.69;5076468;28;20040;-51
2021/09/22 09:44:27;;;;;;;5.60;4.32;;;;;;;32.05;14.02;94795.84;5077210;28;20048;-48
2021/09/22 09:47:04;;;;;;;5.00;4.50;;;;;;;32.02;13.78;94793.97;5071163;28;20684;-49
2021/09/22 09:49:32;;;;;;;4.43;4.03;;;;;;;31.73;14.18;94797.13;5076529;28;20481;-50
2021/09/22 09:52:06;;;;;;;6.57;4.15;;;;;;;31.93;13.95;94804.53;5036766;28;20045;-48
2021/09/22 09:54:53;;;;;;;4.30;3.90;;;;;;;31.89;14.01;94799.19;5068285;28;20052;-47
2021/09/22 09:57:23;;;;;;;4.20;3.80;;;;;;;31.91;14.06;94791.44;5076812;28;20056;-49
2021/09/22 09:59:52;;;;;;;5.15;4.15;;;;;;;31.98;14.37;94794.00;5075977;28;20439;-49
2021/09/22 10:02:32;;;;;;;4.50;4.10;;;;;;;32.07;14.37;94790.78;5076399;28;20056;-48
2021/09/22 10:05:00;;;;;;;4.50;3.80;;;;;;;32.07;13.96;94796.19;5075468;28;20056;-48
2021/09/22 10:07:29;;;;;;;4.82;3.70;;;;;;;32.12;14.23;94796.47;5042330;28;20053;-48
2021/09/22 10:09:57;;;;;;;4.93;3.88;;;;;;;31.80;14.51;94801.66;5064590;28;20328;-46
2021/09/22 10:12:25;;;;;;;4.50;3.70;;;;;;;32.20;14.31;94789.72;5075696;28;20053;-46
2021/09/22 10:14:53;;;;;;;4.40;4.00;;;;;;;31.84;14.42;94797.72;5058538;28;20467;-47
2021/09/22 10:17:23;;;;;;;3.90;3.60;;;;;;;32.01;14.38;94789.69;5052717;28;20057;-47
2021/09/22 10:19:52;;;;;;;4.15;3.75;;;;;;;32.21;14.22;94793.97;5055355;28;20044;-47
2021/09/22 10:22:19;;;;;;;4.13;3.63;;;;;;;31.88;14.54;94790.31;5058875;28;20051;-47
2021/09/22 10:25:01;;;;;;;5.18;4.03;;;;;;;31.95;14.17;94796.75;5071868;28;20386;-47
2021/09/22 10:27:47;;;;;;;4.45;4.05;;;;;;;32.20;14.29;94797.09;5071087;28;20401;-49
2021/09/22 10:30:47;;;;;;;4.20;3.88;;;;;;;31.99;14.22;94786.66;5082007;28;20393;-48
2021/09/22 10:33:32;;;;;;;4.38;3.95;;;;;;;32.03;14.29;94781.97;5112287;27;20368;-51
2021/09/22 10:36:15;;;;;;;4.57;4.18;;;;;;;31.80;14.30;94785.44;5092030;28;20680;-55
2021/09/22 10:38:56;;;;;;;4.63;4.20;;;;;;;31.81;14.36;94771.53;5071692;28;20902;-47
2021/09/22 10:41:42;;;;;;;4.35;3.85;;;;;;;32.15;14.38;94773.22;5071686;28;20701;-47
2021/09/22 10:44:35;;;;;;;4.30;3.90;;;;;;;31.63;14.67;94771.03;5112562;27;20384;-48
2021/09/22 10:47:26;;;;;;;4.50;4.10;;;;;;;31.98;14.61;94766.19;5072067;28;20382;-46
2021/09/22 10:50:08;;;;;;;4.93;3.90;;;;;;;32.06;14.17;94754.09;5086056;28;20719;-51
2021/09/22 10:52:49;;;;;;;4.10;3.70;;;;;;;31.82;14.33;94756.84;5092036;28;20377;-47
2021/09/22 10:55:30;;;;;;;4.68;4.20;;;;;;;31.77;14.73;94759.25;5092001;28;20389;-55
2021/09/22 10:58:13;;;;;;;4.65;4.25;;;;;;;31.60;14.86;94761.03;5071503;28;20387;-46
2021/09/22 11:00:54;;;;;;;4.28;3.88;;;;;;;31.87;14.34;94753.66;5071684;28;20397;-48
2021/09/22 11:03:50;;;;;;;4.60;4.00;;;;;;;31.99;14.62;94759.63;5059916;28;20503;-47
2021/09/22 11:06:46;;;;;;;5.28;4.53;;;;;;;32.16;14.77;94763.94;5071866;28;20879;-55
2021/09/22 11:09:31;;;;;;;9.05;8.27;;;;;;;31.93;15.13;94767.44;5071852;28;20379;-47
2021/09/22 11:12:14;;;;;;;15.05;13.65;;;;;;;32.12;14.96;94757.84;5112323;27;20797;-49
2021/09/22 11:14:59;;;;;;;9.25;8.40;;;;;;;31.96;14.81;94755.03;5071824;28;20401;-47
2021/09/22 11:17:41;;;;;;;15.95;14.25;;;;;;;32.04;14.69;94761.88;5072096;28;20400;-47
2021/09/22 11:20:22;;;;;;;8.73;6.40;;;;;;;32.27;14.18;94767.25;5062293;28;20386;-52
2021/09/22 11:23:11;;;;;;;6.40;5.60;;;;;;;32.19;14.72;94755.00;5092023;28;20392;-47
2021/09/22 11:25:53;;;;;;;5.53;5.03;;;;;;;32.32;14.17;94769.47;5092406;28;20396;-48
2021/09/22 11:28:35;;;;;;;5.20;4.70;;;;;;;32.24;14.41;94768.03;5072100;28;20389;-49
2021/09/22 11:31:17;;;;;;;5.05;4.55;;;;;;;32.31;14.40;94762.53;5071724;28;20396;-47
2021/09/22 11:33:59;;;;;;;4.68;4.22;;;;;;;32.32;14.59;94761.34;5071846;28;20398;-49
2021/09/22 11:36:43;;;;;;;4.72;4.32;;;;;;;32.32;14.44;94755.19;5071947;28;20410;-48
2021/09/22 11:39:25;;;;;;;4.32;3.92;;;;;;;32.05;14.43;94752.56;5071830;28;20397;-47
2021/09/22 11:42:09;;;;;;;5.15;3.90;;;;;;;31.81;14.78;94738.34;5092011;27;20381;-47
2021/09/22 11:44:52;;;;;;;5.07;3.90;;;;;;;31.95;14.63;94745.41;5120675;27;20117;-47
2021/09/22 11:47:34;;;;;;;3.80;3.50;;;;;;;32.19;14.14;94752.28;5092257;27;20893;-47
2021/09/22 11:50:40;;;;;;;4.50;3.80;;;;;;;32.02;14.68;94748.00;5072110;28;20386;-48
2021/09/22 11:53:24;;;;;;;4.63;3.70;;;;;;;32.20;14.32;94741.06;5071718;28;20150;-50
2021/09/22 11:56:06;;;;;;;3.75;3.38;;;;;;;32.01;14.28;94751.84;5078414;27;20394;-48
2021/09/22 11:58:55;;;;;;;5.47;3.60;;;;;;;31.85;14.59;94745.19;5072043;28;20398;-48
2021/09/22 12:01:36;;;;;;;4.88;4.07;;;;;;;32.07;14.47;94736.69;5071801;28;20986;-47
2021/09/22 12:04:17;;;;;;;;;;;;;;;32.04;14.72;94734.81;5126437;27;20340;-53